Tipton, Wyoming
Current Conditions -  °F | °C
As of 7:53 PM on Thursday 27 Nov 2014 (Local Time) from KRWL Reporting Station
Clear Clear  
Wind Chill: 37°   Ceiling: Unl
Heat Index: 42°   Visibility: 10mi
Dew Point: 20°   Wind: 9mph
Humidity: 41%   Direction: 250°WSW
Pressure: 30.18"   Gusts: 20mph
Location:  41.6289°N, 108.096°W
Report Text: KRWL 280253Z AUTO 25008G17KT 10SM CLR 06/M07 A3018 RMK AO2 SLP197 T00561067 58004
Loading
Personal Weather Stations






























Interactive Weather Map New forecast layout! Learn more

10-Day Weather Forecast

Advertisements
Track Severe Weather on mobile